KBCE/BCE METAR and TAF weather

Enter ICAO airport designator
Station Type Date Time Source
KBCE METAR 2020/02/24 23:53 UTC NOAA

KBCE 242353Z AUTO 32014KT 10SM CLR M01/M16 A3019 RMK AO2 PK WND 33029/2306 SLP199 T10111156 10011 21011 50003


Station Type Date Time Source
KBCE Decoded METAR 2020/02/24 23:53 UTC NOAA

BRYCE CANYON AIRPORT, UT, United States (KBCE) 37-42N 112-09W 2312M
Feb 24, 2020 - 06:53 PM EST / 2020.02.24 2353 UTC
Wind: from the NW (320 degrees) at 16 MPH (14 KT):0
Visibility: 10 mile(s):0
Sky conditions: clear
Temperature: 30.0 F (-1.1 C)
Windchill: 19 F (-7 C):1
Dew Point: 3.9 F (-15.6 C)
Relative Humidity: 32%
Pressure (altimeter): 30.19 in. Hg (1022 hPa)
Pressure tendency: 0.01 inches (0.3 hPa) higher than three hours ago
ob: KBCE 242353Z AUTO 32014KT 10SM CLR M01/M16 A3019 RMK AO2 PK WND 33029/2306 SLP199 T10111156 10011 21011 50003
cycle: 0

Station Type Date Time Source
KBCE TAF 2020/02/24 20:36 UTC NOAA

TAF
AMD KBCE 241932Z 2420/2518 32021G30KT P6SM FEW050
FM250200 32011G18KT P6SM FEW050

Example: see airport list